createdAt,value
2023-05-25T00:01:01.228Z,10.04
2023-05-25T00:03:31.371Z,9.99
2023-05-25T00:05:58.877Z,10.01
2023-05-25T00:08:25.571Z,10.09
2023-05-25T00:10:52.445Z,10.03
2023-05-25T00:13:19.223Z,10.01
2023-05-25T00:15:45.957Z,9.99
2023-05-25T00:18:13.227Z,9.88
2023-05-25T00:20:40.012Z,9.94
2023-05-25T00:23:06.782Z,9.96
2023-05-25T00:25:33.826Z,9.82
2023-05-25T00:28:00.592Z,9.87
2023-05-25T00:30:27.219Z,9.83
2023-05-25T00:32:55.632Z,9.86
2023-05-25T00:35:22.400Z,9.80
2023-05-25T00:37:49.751Z,9.85
2023-05-25T00:40:18.516Z,9.71
2023-05-25T00:42:45.259Z,9.59
2023-05-25T00:45:11.921Z,9.74
2023-05-25T00:47:40.087Z,9.81
2023-05-25T00:50:09.373Z,9.77
2023-05-25T00:52:36.234Z,9.38
2023-05-25T00:55:33.650Z,9.74
2023-05-25T00:58:03.712Z,9.49
2023-05-25T01:00:32.728Z,9.63
2023-05-25T01:03:01.057Z,9.58
2023-05-25T01:05:32.351Z,9.57
2023-05-25T01:08:02.556Z,9.58
2023-05-25T01:10:33.234Z,9.31
2023-05-25T01:13:01.973Z,9.56
2023-05-25T01:15:30.675Z,9.43
2023-05-25T01:17:59.702Z,9.08
2023-05-25T01:20:32.768Z,9.51
2023-05-25T01:26:42.734Z,9.42
2023-05-25T01:29:11.427Z,9.30
2023-05-25T01:31:39.952Z,9.33
2023-05-25T01:34:07.594Z,9.28
2023-05-25T01:36:34.329Z,9.32
2023-05-25T01:39:01.132Z,9.32
2023-05-25T01:41:27.823Z,9.25
2023-05-25T01:43:54.840Z,9.32
2023-05-25T01:46:27.494Z,9.30
2023-05-25T01:49:11.896Z,9.29
2023-05-25T01:52:04.276Z,9.26
2023-05-25T01:54:37.203Z,9.18
2023-05-25T01:57:08.088Z,9.21
2023-05-25T01:59:36.601Z,9.16
2023-05-25T02:02:05.548Z,9.12
2023-05-25T02:04:33.000Z,9.19
2023-05-25T02:06:59.736Z,9.15
2023-05-25T02:09:28.389Z,9.03
2023-05-25T02:11:55.053Z,9.13
2023-05-25T02:14:21.937Z,9.15
2023-05-25T02:16:48.687Z,9.12
2023-05-25T02:19:15.416Z,9.10
2023-05-25T02:21:42.566Z,9.04
2023-05-25T02:24:10.404Z,9.10
2023-05-25T02:26:38.437Z,9.15
2023-05-25T02:29:06.427Z,9.14
2023-05-25T02:31:33.329Z,9.09
2023-05-25T02:34:00.099Z,9.02
2023-05-25T02:36:27.207Z,9.02
2023-05-25T02:38:54.085Z,9.03
2023-05-25T02:41:21.403Z,9.08
2023-05-25T02:43:48.207Z,9.03
2023-05-25T02:46:15.081Z,8.89
2023-05-25T02:48:43.092Z,8.91
2023-05-25T02:51:09.994Z,8.97
2023-05-25T02:53:36.781Z,8.95
2023-05-25T02:56:05.652Z,8.99
2023-05-25T02:58:32.355Z,8.96
2023-05-25T03:01:00.660Z,8.88
2023-05-25T03:03:28.128Z,8.96
2023-05-25T03:05:57.134Z,8.84
2023-05-25T03:08:24.026Z,8.83
2023-05-25T03:10:51.074Z,8.92
2023-05-25T03:13:17.813Z,8.85
2023-05-25T03:15:44.921Z,8.90
2023-05-25T03:18:11.719Z,8.84
2023-05-25T03:20:38.712Z,8.88
2023-05-25T03:23:06.382Z,8.91
2023-05-25T03:25:33.023Z,8.87
2023-05-25T03:27:59.780Z,8.84
2023-05-25T03:30:26.544Z,8.89
2023-05-25T03:32:53.180Z,8.85
2023-05-25T03:35:20.129Z,8.80
2023-05-25T03:37:46.952Z,8.85
2023-05-25T03:40:13.742Z,8.92
2023-05-25T03:42:41.181Z,8.74
2023-05-25T03:45:09.380Z,8.98
2023-05-25T03:47:36.781Z,8.95
2023-05-25T03:50:04.858Z,9.02
2023-05-25T03:52:31.498Z,9.07
2023-05-25T03:54:58.228Z,9.07
2023-05-25T03:57:24.821Z,9.01
2023-05-25T03:59:51.456Z,9.02
2023-05-25T04:02:18.173Z,9.22
2023-05-25T04:04:45.300Z,9.26
2023-05-25T04:07:12.225Z,9.35
2023-05-25T04:09:38.886Z,9.45
2023-05-25T04:12:05.787Z,9.58
2023-05-25T04:14:33.058Z,9.63
2023-05-25T04:16:59.713Z,9.36
2023-05-25T04:19:26.411Z,9.84
2023-05-25T04:21:53.162Z,10.40
2023-05-25T04:24:19.787Z,10.95
2023-05-25T04:26:46.845Z,11.94
2023-05-25T04:29:14.334Z,12.71
2023-05-25T04:31:41.083Z,13.42
2023-05-25T04:34:09.712Z,14.08
2023-05-25T04:36:38.747Z,14.79
2023-05-25T04:39:05.813Z,15.35
2023-05-25T04:41:33.949Z,15.76
2023-05-25T04:44:06.969Z,16.37
2023-05-25T04:46:37.447Z,16.89
2023-05-25T04:49:05.726Z,17.28
2023-05-25T04:51:32.558Z,17.90
2023-05-25T04:53:59.846Z,18.30
2023-05-25T04:56:26.902Z,18.64
2023-05-25T04:58:53.809Z,18.97
2023-05-25T05:01:20.684Z,19.18
2023-05-25T05:03:47.696Z,19.65
2023-05-25T05:06:14.483Z,19.91
2023-05-25T05:08:41.807Z,20.40
2023-05-25T05:11:08.853Z,20.92
2023-05-25T05:13:35.533Z,21.29
2023-05-25T05:16:02.253Z,21.64
2023-05-25T05:18:29.241Z,22.00
2023-05-25T05:20:56.110Z,22.47
2023-05-25T05:23:22.871Z,22.98
2023-05-25T05:25:49.573Z,23.32
2023-05-25T05:28:16.256Z,23.30
2023-05-25T05:30:44.193Z,22.98
2023-05-25T05:33:11.268Z,22.50
2023-05-25T05:35:37.950Z,21.70
2023-05-25T05:38:05.102Z,21.59
2023-05-25T05:40:32.013Z,21.31
2023-05-25T05:42:58.651Z,20.89
2023-05-25T05:45:25.623Z,20.36
2023-05-25T05:47:52.448Z,19.84
2023-05-25T05:50:19.258Z,19.52
2023-05-25T05:52:45.961Z,19.09
2023-05-25T05:55:12.778Z,18.63
2023-05-25T05:57:40.258Z,17.95
2023-05-25T06:00:07.539Z,17.68
2023-05-25T06:02:35.404Z,17.33
2023-05-25T06:05:02.235Z,17.23
2023-05-25T06:07:30.832Z,17.05
2023-05-25T06:09:57.813Z,16.95
2023-05-25T06:12:24.439Z,17.08
2023-05-25T06:14:52.233Z,17.14
2023-05-25T06:17:19.329Z,17.25
2023-05-25T06:19:46.144Z,17.33
2023-05-25T06:22:12.930Z,17.11
2023-05-25T06:24:39.598Z,16.88
2023-05-25T06:27:06.225Z,16.68
2023-05-25T06:29:32.974Z,17.02
2023-05-25T06:32:00.250Z,17.10
2023-05-25T06:34:27.067Z,17.06
2023-05-25T06:36:53.735Z,16.96
2023-05-25T06:39:20.879Z,16.90
2023-05-25T06:41:47.531Z,16.70
2023-05-25T06:44:14.273Z,16.66
2023-05-25T06:46:42.082Z,16.82
2023-05-25T06:49:08.739Z,16.77
2023-05-25T06:51:35.463Z,17.33
2023-05-25T06:54:02.241Z,17.87
2023-05-25T06:56:29.015Z,18.10
2023-05-25T06:58:55.785Z,18.12
2023-05-25T07:01:23.271Z,18.07
2023-05-25T07:03:49.870Z,17.71
2023-05-25T07:06:17.143Z,17.45
2023-05-25T07:08:43.867Z,17.14
2023-05-25T07:11:12.532Z,16.62
2023-05-25T07:13:39.253Z,16.90
2023-05-25T07:16:06.422Z,16.94
2023-05-25T07:18:33.477Z,16.73
2023-05-25T07:21:00.241Z,16.43
2023-05-25T07:23:27.190Z,16.28
2023-05-25T07:25:53.893Z,16.51
2023-05-25T07:28:20.718Z,16.67
2023-05-25T07:30:47.698Z,16.87
2023-05-25T07:33:14.432Z,16.47
2023-05-25T07:35:41.150Z,17.09
2023-05-25T07:38:07.896Z,17.23
2023-05-25T07:40:34.567Z,17.04
2023-05-25T07:43:01.464Z,17.34
2023-05-25T07:45:28.147Z,17.99
2023-05-25T07:47:54.980Z,18.04
2023-05-25T07:50:22.136Z,18.07
2023-05-25T07:52:49.074Z,18.39
2023-05-25T07:55:15.807Z,18.81
2023-05-25T07:57:42.583Z,18.89
2023-05-25T08:00:11.141Z,18.77
2023-05-25T08:02:38.041Z,18.64
2023-05-25T08:05:06.288Z,18.45
2023-05-25T08:07:34.730Z,18.27
2023-05-25T08:10:02.268Z,18.05
2023-05-25T08:12:47.117Z,17.70
2023-05-25T08:15:16.722Z,17.38
2023-05-25T08:17:43.850Z,17.35
2023-05-25T08:20:11.193Z,17.50
2023-05-25T08:22:38.217Z,17.45
2023-05-25T08:25:05.428Z,17.51
2023-05-25T08:27:34.547Z,17.37
2023-05-25T08:30:03.478Z,17.31
2023-05-25T08:32:30.284Z,17.24
2023-05-25T08:34:57.122Z,17.34
2023-05-25T08:37:25.170Z,17.23
2023-05-25T08:39:51.949Z,17.29
2023-05-25T08:42:18.665Z,17.11
2023-05-25T08:44:45.628Z,17.05
2023-05-25T08:47:13.478Z,17.22
2023-05-25T08:49:41.669Z,17.13
2023-05-25T08:52:14.041Z,17.03
2023-05-25T08:54:45.135Z,17.07
2023-05-25T08:57:29.837Z,16.80
2023-05-25T09:00:15.832Z,16.98
2023-05-25T09:02:51.351Z,16.86
2023-05-25T09:05:18.977Z,16.72
2023-05-25T09:07:46.600Z,16.85
2023-05-25T09:10:14.965Z,16.75
2023-05-25T09:12:42.630Z,16.64
2023-05-25T09:15:12.958Z,16.79
2023-05-25T09:17:43.077Z,16.83
2023-05-25T09:20:11.400Z,16.83
2023-05-25T09:22:38.808Z,16.89
2023-05-25T09:25:08.632Z,16.54
2023-05-25T09:27:39.147Z,16.63
2023-05-25T09:30:06.127Z,16.56
2023-05-25T09:32:33.185Z,16.46
2023-05-25T09:35:09.449Z,16.74
2023-05-25T09:37:37.654Z,16.59
2023-05-25T09:40:06.188Z,16.83
2023-05-25T09:42:37.086Z,16.95
2023-05-25T09:45:05.429Z,16.87
2023-05-25T09:47:32.083Z,17.01
2023-05-25T09:50:00.229Z,17.16
2023-05-25T09:52:27.580Z,17.10
2023-05-25T09:54:55.051Z,17.15
2023-05-25T09:57:21.771Z,17.16
2023-05-25T09:59:48.735Z,17.16
2023-05-25T10:02:15.947Z,17.35
2023-05-25T10:04:42.763Z,17.25
2023-05-25T10:07:09.910Z,17.39
2023-05-25T10:09:43.339Z,17.31
2023-05-25T10:12:11.488Z,17.06
2023-05-25T10:14:38.931Z,17.15
2023-05-25T10:17:09.630Z,16.97
2023-05-25T10:19:45.901Z,16.92
2023-05-25T10:22:19.997Z,16.86
2023-05-25T10:24:58.738Z,17.03
2023-05-25T10:27:32.837Z,17.01
2023-05-25T10:30:01.967Z,17.15
2023-05-25T10:32:29.698Z,17.05
2023-05-25T10:34:57.342Z,16.92
2023-05-25T10:37:27.354Z,16.83
2023-05-25T10:39:55.672Z,16.93
2023-05-25T10:42:22.898Z,17.12
2023-05-25T10:44:50.635Z,17.15
2023-05-25T10:47:17.654Z,17.12
2023-05-25T10:50:01.926Z,16.98
2023-05-25T10:52:30.673Z,16.83
2023-05-25T10:55:02.056Z,16.53
2023-05-25T10:57:29.295Z,16.75
2023-05-25T11:00:06.238Z,16.75
2023-05-25T11:02:51.544Z,16.72
2023-05-25T11:05:21.083Z,16.68
2023-05-25T11:07:57.946Z,16.68
2023-05-25T11:10:44.493Z,16.74
2023-05-25T11:13:44.018Z,16.78
2023-05-25T11:16:36.198Z,16.89
2023-05-25T11:19:03.700Z,17.29
2023-05-25T11:21:30.781Z,17.45
2023-05-25T11:23:58.774Z,17.37
2023-05-25T11:26:30.216Z,17.00
2023-05-25T11:29:01.944Z,17.15
2023-05-25T11:31:31.591Z,17.01
2023-05-25T11:34:01.259Z,17.21
2023-05-25T11:36:33.669Z,17.26
2023-05-25T11:39:08.564Z,17.34
2023-05-25T11:41:47.778Z,17.33
2023-05-25T11:44:14.904Z,17.32
2023-05-25T11:46:43.759Z,17.44
2023-05-25T11:49:10.711Z,17.25
2023-05-25T11:51:38.114Z,17.26
2023-05-25T11:54:04.899Z,17.15
2023-05-25T11:56:36.033Z,17.07
2023-05-25T11:59:07.382Z,16.91
2023-05-25T12:01:34.009Z,16.90
2023-05-25T12:04:09.286Z,17.09
2023-05-25T12:06:39.044Z,17.20
2023-05-25T12:09:12.003Z,17.18
2023-05-25T12:11:39.051Z,17.30
2023-05-25T12:14:07.229Z,17.34
2023-05-25T12:16:38.939Z,17.38
2023-05-25T12:19:10.874Z,17.25
2023-05-25T12:21:39.705Z,17.23
2023-05-25T12:24:07.032Z,17.31
2023-05-25T12:26:33.885Z,17.35
2023-05-25T12:29:05.744Z,17.37
2023-05-25T12:31:34.332Z,17.37
2023-05-25T12:34:27.810Z,17.27
2023-05-25T12:36:56.498Z,17.06
2023-05-25T12:39:29.248Z,17.07
2023-05-25T12:41:57.531Z,16.83
2023-05-25T12:44:27.798Z,16.98
2023-05-25T12:46:56.904Z,16.94
2023-05-25T12:49:28.740Z,17.03
2023-05-25T12:51:56.136Z,16.92
2023-05-25T12:54:47.085Z,16.82
2023-05-25T12:57:15.714Z,16.86
2023-05-25T12:59:44.515Z,16.87
2023-05-25T13:02:13.320Z,16.67
2023-05-25T13:04:41.545Z,16.61
2023-05-25T13:07:09.125Z,16.35
2023-05-25T13:09:36.842Z,16.52
2023-05-25T13:12:04.253Z,16.58
2023-05-25T13:14:30.939Z,16.58
2023-05-25T13:16:57.852Z,16.60
2023-05-25T13:19:25.848Z,16.61
2023-05-25T13:21:53.056Z,16.62
2023-05-25T13:24:20.178Z,16.57
2023-05-25T13:26:49.210Z,16.37
2023-05-25T13:29:17.379Z,16.56
2023-05-25T13:31:44.377Z,16.34
2023-05-25T13:34:11.739Z,16.27
2023-05-25T13:36:38.623Z,16.43
2023-05-25T13:39:05.513Z,16.48
2023-05-25T13:41:32.387Z,16.43
2023-05-25T13:43:59.120Z,16.41
2023-05-25T13:46:34.617Z,16.44
2023-05-25T13:49:02.882Z,16.40
2023-05-25T13:51:29.691Z,16.37
2023-05-25T13:53:56.384Z,16.43
2023-05-25T13:56:23.343Z,16.40
2023-05-25T13:58:50.103Z,16.36
2023-05-25T14:01:16.938Z,16.36
2023-05-25T14:03:43.966Z,16.22
2023-05-25T14:06:11.084Z,16.29
2023-05-25T14:08:37.867Z,16.35
2023-05-25T14:11:04.617Z,16.33
2023-05-25T14:13:31.288Z,16.31
2023-05-25T14:15:58.241Z,16.26
2023-05-25T14:18:25.026Z,16.32
2023-05-25T14:20:52.744Z,16.41
2023-05-25T14:23:19.596Z,16.42
2023-05-25T14:25:47.017Z,16.41
2023-05-25T14:28:14.164Z,16.50
2023-05-25T14:30:40.794Z,16.40
2023-05-25T14:33:07.743Z,16.24
2023-05-25T14:35:34.745Z,16.34
2023-05-25T14:38:02.276Z,16.03
2023-05-25T14:40:28.981Z,16.47
2023-05-25T14:42:55.874Z,16.31
2023-05-25T14:45:22.706Z,16.21
2023-05-25T14:47:51.903Z,16.21
2023-05-25T14:50:22.515Z,16.04
2023-05-25T14:52:49.248Z,16.14
2023-05-25T14:55:16.078Z,16.18
2023-05-25T14:57:42.809Z,16.17
2023-05-25T15:00:10.019Z,16.21
2023-05-25T15:02:37.061Z,16.12
2023-05-25T15:05:04.059Z,16.09
2023-05-25T15:07:30.708Z,15.93
2023-05-25T15:09:57.481Z,15.84
2023-05-25T15:12:24.237Z,15.66
2023-05-25T15:14:50.875Z,15.58
2023-05-25T15:17:17.628Z,15.50
2023-05-25T15:19:44.334Z,15.53
2023-05-25T15:22:11.042Z,15.54
2023-05-25T15:24:37.676Z,15.48
2023-05-25T15:27:05.255Z,15.14
2023-05-25T15:29:31.956Z,15.34
2023-05-25T15:31:59.101Z,15.19
2023-05-25T15:34:26.400Z,15.38
2023-05-25T15:36:53.163Z,15.38
2023-05-25T15:39:19.958Z,15.26
2023-05-25T15:41:47.038Z,15.20
2023-05-25T15:44:13.874Z,15.05
2023-05-25T15:46:41.124Z,14.95
2023-05-25T15:49:13.739Z,15.13
2023-05-25T15:51:42.597Z,15.19
2023-05-25T15:54:14.140Z,15.25
2023-05-25T15:56:41.598Z,15.18
2023-05-25T15:59:08.345Z,14.91
2023-05-25T16:01:36.879Z,15.13
2023-05-25T16:04:07.344Z,15.33
2023-05-25T16:06:34.057Z,15.30
2023-05-25T16:09:01.019Z,14.99
2023-05-25T16:11:29.585Z,15.08
2023-05-25T16:13:56.264Z,15.27
2023-05-25T16:16:24.465Z,15.21
2023-05-25T16:18:51.928Z,15.33
2023-05-25T16:21:18.764Z,15.34
2023-05-25T16:23:45.583Z,15.18
2023-05-25T16:26:12.446Z,15.16
2023-05-25T16:28:39.551Z,15.11
2023-05-25T16:31:07.058Z,14.98
2023-05-25T16:33:34.378Z,14.97
2023-05-25T16:36:01.118Z,14.88
2023-05-25T16:38:28.140Z,14.72
2023-05-25T16:40:55.084Z,14.80
2023-05-25T16:43:25.117Z,14.69
2023-05-25T16:45:52.172Z,14.63
2023-05-25T16:48:20.878Z,14.61
2023-05-25T16:50:49.131Z,14.50
2023-05-25T16:53:15.831Z,14.41
2023-05-25T16:55:42.849Z,14.43
2023-05-25T16:58:09.598Z,14.48
2023-05-25T17:00:36.410Z,14.30
2023-05-25T17:03:03.267Z,14.40
2023-05-25T17:05:29.988Z,14.23
2023-05-25T17:07:57.272Z,14.21
2023-05-25T17:10:24.120Z,14.17
2023-05-25T17:12:51.377Z,14.15
2023-05-25T17:15:18.300Z,13.92
2023-05-25T17:17:45.276Z,14.06
2023-05-25T17:20:12.136Z,14.11
2023-05-25T17:22:38.838Z,14.15
2023-05-25T17:25:06.582Z,14.08
2023-05-25T17:27:33.450Z,14.21
2023-05-25T17:30:00.256Z,14.21
2023-05-25T17:32:27.147Z,14.15
2023-05-25T17:34:53.917Z,14.08
2023-05-25T17:37:23.053Z,13.93
2023-05-25T17:39:49.660Z,13.98
2023-05-25T17:42:16.897Z,13.86
2023-05-25T17:44:43.732Z,13.43
2023-05-25T17:47:11.334Z,13.67
2023-05-25T17:49:38.293Z,13.64
2023-05-25T17:52:05.314Z,13.57
2023-05-25T17:54:32.094Z,13.56
2023-05-25T17:56:58.767Z,13.51
2023-05-25T17:59:25.528Z,13.35
2023-05-25T18:01:52.575Z,13.36
2023-05-25T18:04:19.860Z,13.15
2023-05-25T18:06:47.461Z,13.17
2023-05-25T18:09:14.308Z,13.31
2023-05-25T18:11:41.271Z,13.30
2023-05-25T18:14:08.165Z,13.23
2023-05-25T18:16:39.698Z,13.17
2023-05-25T18:19:09.467Z,13.03
2023-05-25T18:21:38.182Z,13.00
2023-05-25T18:24:05.698Z,12.91
2023-05-25T18:26:32.351Z,12.88
2023-05-25T18:28:59.362Z,12.82
2023-05-25T18:31:27.198Z,12.79
2023-05-25T18:33:53.954Z,12.66
2023-05-25T18:36:20.889Z,12.59
2023-05-25T18:38:47.585Z,12.52
2023-05-25T18:41:14.269Z,12.48
2023-05-25T18:43:42.193Z,12.36
2023-05-25T18:46:09.093Z,12.12
2023-05-25T18:48:36.619Z,12.45
2023-05-25T18:51:03.503Z,12.29
2023-05-25T18:53:30.255Z,12.12
2023-05-25T18:55:56.935Z,12.21
2023-05-25T18:58:23.731Z,12.17
2023-05-25T19:00:50.476Z,12.20
2023-05-25T19:03:17.213Z,12.15
2023-05-25T19:05:44.083Z,12.14
2023-05-25T19:08:12.527Z,12.18
2023-05-25T19:10:41.185Z,12.08
2023-05-25T19:13:08.025Z,12.13
2023-05-25T19:15:34.775Z,12.05
2023-05-25T19:18:03.994Z,11.94
2023-05-25T19:20:32.644Z,11.97
2023-05-25T19:23:00.114Z,11.95
2023-05-25T19:25:26.799Z,11.90
2023-05-25T19:27:53.754Z,11.86
2023-05-25T19:30:20.670Z,11.64
2023-05-25T19:32:47.331Z,11.64
2023-05-25T19:35:14.075Z,11.63
2023-05-25T19:37:41.504Z,11.63
2023-05-25T19:40:09.580Z,11.60
2023-05-25T19:42:36.524Z,11.49
2023-05-25T19:45:04.732Z,11.34
2023-05-25T19:47:31.592Z,11.37
2023-05-25T19:49:58.334Z,11.49
2023-05-25T19:52:25.006Z,11.38
2023-05-25T19:54:51.820Z,11.38
2023-05-25T19:57:19.202Z,11.28
2023-05-25T19:59:46.164Z,11.23
2023-05-25T20:02:12.963Z,11.32
2023-05-25T20:04:41.176Z,11.09
2023-05-25T20:07:08.077Z,11.21
2023-05-25T20:09:35.890Z,11.21
2023-05-25T20:12:03.272Z,11.17
2023-05-25T20:14:36.235Z,10.78
2023-05-25T20:17:03.196Z,11.16
2023-05-25T20:19:29.881Z,11.01
2023-05-25T20:21:57.948Z,11.07
2023-05-25T20:24:24.576Z,10.88
2023-05-25T20:26:56.500Z,11.00
2023-05-25T20:29:23.963Z,11.11
2023-05-25T20:31:50.824Z,11.04
2023-05-25T20:34:18.056Z,11.01
2023-05-25T20:36:45.050Z,11.00
2023-05-25T20:39:11.768Z,10.99
2023-05-25T20:41:38.622Z,10.83
2023-05-25T20:44:09.102Z,10.92
2023-05-25T20:46:36.204Z,10.88
2023-05-25T20:49:03.609Z,10.77
2023-05-25T20:51:31.284Z,10.79
2023-05-25T20:53:58.130Z,10.72
2023-05-25T20:56:27.788Z,10.65
2023-05-25T20:58:55.280Z,10.62
2023-05-25T21:01:22.009Z,10.63
2023-05-25T21:03:48.856Z,10.68
2023-05-25T21:06:16.256Z,10.57
2023-05-25T21:08:43.196Z,10.68
2023-05-25T21:11:09.902Z,10.57
2023-05-25T21:13:37.088Z,10.60
2023-05-25T21:16:03.745Z,10.63
2023-05-25T21:18:30.566Z,10.56
2023-05-25T21:20:57.310Z,10.55
2023-05-25T21:23:23.948Z,10.43
2023-05-25T21:25:50.800Z,10.52
2023-05-25T21:28:17.535Z,10.46
2023-05-25T21:30:44.172Z,10.42
2023-05-25T21:33:10.965Z,10.35
2023-05-25T21:35:37.873Z,10.38
2023-05-25T21:38:04.505Z,10.39
2023-05-25T21:40:31.177Z,10.31
2023-05-25T21:42:58.314Z,10.15
2023-05-25T21:45:25.078Z,10.25
2023-05-25T21:47:51.735Z,10.23
2023-05-25T21:50:18.731Z,10.29
2023-05-25T21:52:46.095Z,10.29
2023-05-25T21:55:12.808Z,10.33
2023-05-25T21:57:39.914Z,10.31
2023-05-25T22:00:07.844Z,10.21
2023-05-25T22:02:34.625Z,10.21
2023-05-25T22:05:02.745Z,10.23
2023-05-25T22:07:29.531Z,10.20
2023-05-25T22:09:56.157Z,10.14
2023-05-25T22:12:22.844Z,10.15
2023-05-25T22:14:49.886Z,10.07
2023-05-25T22:17:17.449Z,10.14
2023-05-25T22:19:46.903Z,10.08
2023-05-25T22:22:18.933Z,10.12
2023-05-25T22:24:46.243Z,10.10
2023-05-25T22:27:12.968Z,10.00
2023-05-25T22:29:39.637Z,10.06
2023-05-25T22:32:06.889Z,9.92
2023-05-25T22:34:33.502Z,9.97
2023-05-25T22:37:00.146Z,10.01
2023-05-25T22:39:26.862Z,9.95
2023-05-25T22:41:53.539Z,9.97
2023-05-25T22:44:20.138Z,9.90
2023-05-25T22:46:47.587Z,9.93
2023-05-25T22:49:14.282Z,9.95
2023-05-25T22:51:40.958Z,9.86
2023-05-25T22:54:07.673Z,9.91
2023-05-25T22:56:36.113Z,9.78
2023-05-25T22:59:02.876Z,9.87
2023-05-25T23:01:30.723Z,9.58
2023-05-25T23:03:59.619Z,9.82
2023-05-25T23:06:26.524Z,9.77
2023-05-25T23:08:53.346Z,9.81
2023-05-25T23:11:19.943Z,9.81
2023-05-25T23:13:46.632Z,9.57
2023-05-25T23:16:15.462Z,9.71
2023-05-25T23:18:42.542Z,9.72
2023-05-25T23:21:09.449Z,9.69
2023-05-25T23:23:36.273Z,9.64
2023-05-25T23:26:03.721Z,9.68
2023-05-25T23:28:30.588Z,9.59
2023-05-25T23:30:57.387Z,9.67
2023-05-25T23:33:24.056Z,9.59
2023-05-25T23:35:50.713Z,9.58
2023-05-25T23:38:17.546Z,9.42
2023-05-25T23:40:44.358Z,9.38
2023-05-25T23:43:11.119Z,9.46
2023-05-25T23:45:38.025Z,9.43
2023-05-25T23:48:04.982Z,9.41
2023-05-25T23:50:31.621Z,9.47
2023-05-25T23:52:58.414Z,8.96
2023-05-25T23:55:25.028Z,9.24
2023-05-25T23:57:51.669Z,9.29
